Time;durP1;ratioP1;P1;durP2;ratioP2;P2;SDS_P1;SDS_P2;PMS_P1;PMS_P2;Temp;Humidity;BMP_temperature;BMP_pressure;BME280_temperature;BME280_humidity;BME280_pressure;Samples;Min_cycle;Max_cycle;Signal;HPM_P1;HPM_P2
2023/10/31 00:00:29;;;;;;;1.57;1.37;;;15.90;93.10;;;;;;5036181;28;20891;-68
2023/10/31 00:02:57;;;;;;;1.40;1.30;;;15.90;93.60;;;;;;5072133;28;20536;-67
2023/10/31 00:05:24;;;;;;;1.87;1.30;;;15.90;93.50;;;;;;5071046;28;20455;-66
2023/10/31 00:07:51;;;;;;;1.30;1.20;;;15.90;93.90;;;;;;5056216;28;20457;-68
2023/10/31 00:10:18;;;;;;;2.03;1.20;;;15.90;93.70;;;;;;5070633;28;20959;-69
2023/10/31 00:12:45;;;;;;;0.97;0.97;;;15.80;93.50;;;;;;5053136;28;20454;-67
2023/10/31 00:15:11;;;;;;;2.57;1.33;;;15.80;93.30;;;;;;5036167;28;20999;-68
2023/10/31 00:17:39;;;;;;;1.00;0.90;;;15.90;93.20;;;;;;5071355;28;20465;-68
2023/10/31 00:20:10;;;;;;;1.40;1.03;;;15.90;92.70;;;;;;5071324;28;20466;-67
2023/10/31 00:22:37;;;;;;;1.20;1.10;;;15.90;92.80;;;;;;5071248;28;20446;-68
2023/10/31 00:25:05;;;;;;;3.13;1.30;;;15.90;92.40;;;;;;5071987;28;20438;-68
2023/10/31 00:27:33;;;;;;;1.30;0.90;;;15.90;92.40;;;;;;5020432;28;20508;-68
2023/10/31 00:30:00;;;;;;;0.97;0.80;;;15.90;92.00;;;;;;5052645;28;20482;-68
2023/10/31 00:32:27;;;;;;;1.30;0.70;;;15.80;91.60;;;;;;5051729;28;20472;-68
2023/10/31 00:34:54;;;;;;;0.80;0.77;;;15.70;91.60;;;;;;5016057;28;20447;-67
2023/10/31 00:37:25;;;;;;;0.90;0.90;;;15.60;91.70;;;;;;5060436;28;20451;-68
2023/10/31 00:39:51;;;;;;;1.60;0.90;;;15.50;91.80;;;;;;5055747;28;20459;-68
2023/10/31 00:42:18;;;;;;;1.07;0.97;;;15.50;91.90;;;;;;5052077;28;20543;-66
2023/10/31 00:44:45;;;;;;;1.97;0.87;;;15.40;91.70;;;;;;5051796;28;20476;-67
2023/10/31 00:47:12;;;;;;;0.70;0.70;;;15.40;91.70;;;;;;5016348;28;20443;-67
2023/10/31 00:49:39;;;;;;;1.93;0.70;;;15.40;91.80;;;;;;5050837;28;20498;-68
2023/10/31 00:52:06;;;;;;;3.07;0.97;;;15.40;91.60;;;;;;5051224;28;20452;-68
2023/10/31 00:54:34;;;;;;;1.83;0.80;;;15.40;91.60;;;;;;5051631;28;20440;-68
2023/10/31 00:57:01;;;;;;;2.30;0.83;;;15.40;91.70;;;;;;5051385;28;20496;-68
2023/10/31 00:59:27;;;;;;;1.27;0.70;;;15.40;91.60;;;;;;5059070;28;20451;-68
2023/10/31 01:01:54;;;;;;;2.20;0.90;;;15.30;91.40;;;;;;5071099;28;20558;-68
2023/10/31 01:04:21;;;;;;;0.77;0.70;;;15.40;91.50;;;;;;5070998;28;20443;-68
2023/10/31 01:06:48;;;;;;;1.43;0.80;;;15.30;91.50;;;;;;5071135;28;20443;-67
2023/10/31 01:09:15;;;;;;;3.20;0.80;;;15.30;91.40;;;;;;5071171;28;20475;-67
2023/10/31 01:11:43;;;;;;;1.50;0.90;;;15.40;91.20;;;;;;5067919;28;20498;-67
2023/10/31 01:14:10;;;;;;;1.07;0.70;;;15.40;91.20;;;;;;5071154;28;20471;-67
2023/10/31 01:16:37;;;;;;;1.43;1.00;;;15.30;91.40;;;;;;5071103;28;20479;-68
2023/10/31 01:19:04;;;;;;;2.73;0.60;;;15.30;91.00;;;;;;5074265;28;20471;-68
2023/10/31 01:21:31;;;;;;;0.90;0.80;;;15.20;91.10;;;;;;5073893;28;20447;-68
2023/10/31 01:23:59;;;;;;;0.60;0.60;;;15.30;91.30;;;;;;5074927;28;20446;-70
2023/10/31 01:26:26;;;;;;;1.50;0.90;;;15.30;91.00;;;;;;5074758;28;20522;-68
2023/10/31 01:28:54;;;;;;;1.57;1.00;;;15.30;91.00;;;;;;5071534;28;20461;-68
2023/10/31 01:31:21;;;;;;;2.40;0.90;;;15.30;91.10;;;;;;5069430;28;20471;-68
2023/10/31 01:33:50;;;;;;;1.10;1.00;;;15.40;91.00;;;;;;5074275;28;20489;-67
2023/10/31 01:36:18;;;;;;;0.90;0.47;;;15.40;91.00;;;;;;5074774;28;20479;-67
2023/10/31 01:38:46;;;;;;;1.27;0.93;;;15.30;90.80;;;;;;5074782;28;20447;-68
2023/10/31 01:41:13;;;;;;;3.17;0.80;;;15.30;90.80;;;;;;5073322;28;20962;-67
2023/10/31 01:43:39;;;;;;;2.50;1.10;;;15.30;90.60;;;;;;5054587;28;20476;-67
2023/10/31 01:46:08;;;;;;;0.40;0.40;;;15.30;90.80;;;;;;5054436;28;20444;-67
2023/10/31 01:48:35;;;;;;;1.07;0.70;;;15.30;90.80;;;;;;5053757;28;20464;-68
2023/10/31 01:51:04;;;;;;;0.97;0.67;;;15.20;90.90;;;;;;5054314;28;20448;-67
2023/10/31 01:53:33;;;;;;;2.07;0.90;;;15.30;91.00;;;;;;5074117;28;20459;-68
2023/10/31 01:56:02;;;;;;;3.50;1.37;;;15.40;90.70;;;;;;5074171;28;20994;-67
2023/10/31 01:58:32;;;;;;;1.33;0.73;;;15.50;90.60;;;;;;5073569;28;20455;-66
2023/10/31 02:01:01;;;;;;;0.70;0.70;;;15.50;90.20;;;;;;5053875;28;20475;-68
2023/10/31 02:03:29;;;;;;;1.53;0.80;;;15.40;90.30;;;;;;5060038;28;20447;-67
2023/10/31 02:05:57;;;;;;;1.67;0.90;;;15.30;90.30;;;;;;5074143;28;20477;-68
2023/10/31 02:08:24;;;;;;;0.97;0.87;;;15.30;90.50;;;;;;5074089;28;20478;-68
2023/10/31 02:10:52;;;;;;;1.10;0.70;;;15.50;90.40;;;;;;5073903;28;20479;-67
2023/10/31 02:13:19;;;;;;;0.70;0.70;;;15.40;90.10;;;;;;5073318;28;20475;-68
2023/10/31 02:15:47;;;;;;;1.13;0.83;;;15.30;90.00;;;;;;5074052;28;20476;-68
2023/10/31 02:18:14;;;;;;;0.90;0.70;;;15.30;90.10;;;;;;5073620;28;20553;-67
2023/10/31 02:20:43;;;;;;;1.37;0.67;;;15.30;90.20;;;;;;5073654;28;20936;-67
2023/10/31 02:23:11;;;;;;;0.63;0.60;;;15.40;90.00;;;;;;5073429;28;20485;-69
2023/10/31 02:25:38;;;;;;;0.50;0.50;;;15.40;89.80;;;;;;5073863;28;20450;-67
2023/10/31 02:28:05;;;;;;;2.80;0.70;;;15.40;89.80;;;;;;5073360;28;20887;-68
2023/10/31 02:30:32;;;;;;;0.63;0.63;;;15.50;89.80;;;;;;5036546;28;20495;-66
2023/10/31 02:32:58;;;;;;;1.47;1.03;;;15.50;89.50;;;;;;5053618;28;20463;-67
2023/10/31 02:35:25;;;;;;;1.63;0.80;;;15.50;89.20;;;;;;5071840;28;20476;-68
2023/10/31 02:37:52;;;;;;;1.27;0.60;;;15.60;89.20;;;;;;5073777;28;20900;-67
2023/10/31 02:40:20;;;;;;;2.57;0.80;;;15.50;89.40;;;;;;5073694;28;20457;-67
2023/10/31 02:42:47;;;;;;;1.00;0.60;;;15.50;89.00;;;;;;5073463;28;20451;-68
2023/10/31 02:45:15;;;;;;;1.70;0.93;;;15.50;89.20;;;;;;5071027;28;20485;-68
2023/10/31 02:47:41;;;;;;;2.53;0.70;;;15.50;89.00;;;;;;5058937;28;20471;-66
2023/10/31 02:50:09;;;;;;;2.40;0.87;;;15.50;89.10;;;;;;5073410;28;20534;-66
2023/10/31 02:52:36;;;;;;;2.53;0.90;;;15.50;89.20;;;;;;5073174;28;20841;-67
2023/10/31 02:55:03;;;;;;;2.73;0.60;;;15.50;89.00;;;;;;5073560;28;20487;-67
2023/10/31 02:57:31;;;;;;;1.60;0.97;;;15.50;88.90;;;;;;5073176;28;20479;-68
2023/10/31 02:59:58;;;;;;;1.63;0.97;;;15.50;89.10;;;;;;5061489;28;20945;-67
2023/10/31 03:02:25;;;;;;;1.13;0.90;;;15.50;88.80;;;;;;5052990;28;20452;-67
2023/10/31 03:04:52;;;;;;;3.67;1.30;;;15.50;89.30;;;;;;5053311;28;20571;-68
2023/10/31 03:07:19;;;;;;;1.07;0.97;;;15.50;88.90;;;;;;5052951;28;20452;-67
2023/10/31 03:09:45;;;;;;;1.37;0.90;;;15.50;88.70;;;;;;5053496;28;20444;-66
2023/10/31 03:12:12;;;;;;;1.43;0.70;;;15.40;88.60;;;;;;5059784;28;20502;-67
2023/10/31 03:14:40;;;;;;;1.03;0.63;;;15.40;88.70;;;;;;5072195;28;20814;-67
2023/10/31 03:17:07;;;;;;;1.27;0.60;;;15.50;88.80;;;;;;5061887;28;20495;-68
2023/10/31 03:19:34;;;;;;;2.67;0.60;;;15.50;88.90;;;;;;5001002;28;20443;-68
2023/10/31 03:22:01;;;;;;;0.93;0.70;;;15.50;88.70;;;;;;5064404;28;20449;-67
2023/10/31 03:24:28;;;;;;;0.90;0.57;;;15.50;88.80;;;;;;5076521;28;20479;-66
2023/10/31 03:26:55;;;;;;;0.90;0.70;;;15.40;88.30;;;;;;5068774;28;20440;-68
2023/10/31 03:29:22;;;;;;;2.10;0.80;;;15.40;88.20;;;;;;5071710;28;20491;-67
2023/10/31 03:31:50;;;;;;;1.40;0.90;;;15.40;88.90;;;;;;5072082;28;20450;-67
2023/10/31 03:34:16;;;;;;;1.33;0.60;;;15.50;88.30;;;;;;5072164;28;20450;-67
2023/10/31 03:36:43;;;;;;;1.63;0.90;;;15.50;88.40;;;;;;5065354;28;20468;-67
2023/10/31 03:39:10;;;;;;;2.33;0.80;;;15.50;88.30;;;;;;5052674;28;20458;-66
2023/10/31 03:41:38;;;;;;;2.13;0.83;;;15.50;88.40;;;;;;5016855;28;20464;-68
2023/10/31 03:44:05;;;;;;;3.43;0.93;;;15.50;88.10;;;;;;5051811;28;20448;-68
2023/10/31 03:46:32;;;;;;;1.77;0.60;;;15.40;87.80;;;;;;5054258;28;20495;-67
2023/10/31 03:49:00;;;;;;;0.80;0.77;;;15.40;87.90;;;;;;5072326;28;21022;-68
2023/10/31 03:51:27;;;;;;;0.93;0.80;;;15.50;88.30;;;;;;5072272;28;20501;-68
2023/10/31 03:53:54;;;;;;;2.13;1.10;;;15.30;88.10;;;;;;5072348;28;20447;-67
2023/10/31 03:56:21;;;;;;;1.20;1.00;;;15.20;88.00;;;;;;5071602;28;20486;-68
2023/10/31 03:58:48;;;;;;;1.30;0.80;;;15.20;88.60;;;;;;5054030;28;20821;-66
2023/10/31 04:01:14;;;;;;;2.00;1.03;;;15.20;88.00;;;;;;5051816;28;20463;-67
2023/10/31 04:03:41;;;;;;;1.80;0.90;;;15.20;88.50;;;;;;5056199;28;20468;-67
2023/10/31 04:06:10;;;;;;;1.80;0.87;;;15.20;88.00;;;;;;5052020;28;20510;-67
2023/10/31 04:08:39;;;;;;;1.07;0.80;;;15.20;88.30;;;;;;5052479;28;20456;-66
2023/10/31 04:11:06;;;;;;;1.03;0.83;;;15.20;88.00;;;;;;5051870;28;20472;-67
2023/10/31 04:13:33;;;;;;;0.70;0.70;;;15.10;87.80;;;;;;5052309;28;20938;-68
2023/10/31 04:16:00;;;;;;;2.13;0.90;;;15.10;88.20;;;;;;5051299;28;20472;-67
2023/10/31 04:18:27;;;;;;;1.03;0.80;;;15.10;88.10;;;;;;5068248;28;20837;-68
2023/10/31 04:20:54;;;;;;;1.07;0.70;;;15.10;87.60;;;;;;5071871;28;20529;-68
2023/10/31 04:23:23;;;;;;;0.93;0.77;;;15.10;86.90;;;;;;5071783;28;20451;-67
2023/10/31 04:25:50;;;;;;;3.13;1.13;;;15.00;87.40;;;;;;5062035;28;20586;-67
2023/10/31 04:28:17;;;;;;;2.40;1.10;;;15.00;88.00;;;;;;5066105;28;20571;-67
2023/10/31 04:30:44;;;;;;;3.30;1.00;;;15.10;87.50;;;;;;5071586;28;20621;-66
2023/10/31 04:33:11;;;;;;;3.20;1.10;;;15.10;87.50;;;;;;5070677;28;20471;-67
2023/10/31 04:35:38;;;;;;;2.20;1.00;;;15.10;87.50;;;;;;5055248;28;20470;-66
2023/10/31 04:38:05;;;;;;;5.00;0.90;;;15.10;87.60;;;;;;5058231;28;20490;-66
2023/10/31 04:40:33;;;;;;;1.50;0.83;;;15.10;88.00;;;;;;5052707;28;20816;-67
2023/10/31 04:43:00;;;;;;;1.43;0.80;;;15.10;87.60;;;;;;5051044;28;20448;-66
2023/10/31 04:45:27;;;;;;;1.03;0.80;;;15.20;87.60;;;;;;5052194;28;20831;-67
2023/10/31 04:47:54;;;;;;;3.10;0.90;;;15.30;88.10;;;;;;5050932;28;20455;-67
2023/10/31 04:50:21;;;;;;;1.50;0.97;;;15.30;87.10;;;;;;5051362;28;20471;-66
2023/10/31 04:52:48;;;;;;;1.20;0.83;;;15.30;86.80;;;;;;5052987;28;20950;-67
2023/10/31 04:55:17;;;;;;;0.90;0.63;;;15.40;86.90;;;;;;5056613;28;20452;-67
2023/10/31 04:57:45;;;;;;;2.47;0.80;;;15.40;86.70;;;;;;5054663;28;20494;-68
2023/10/31 05:00:13;;;;;;;1.10;0.70;;;15.40;86.80;;;;;;5056739;28;20463;-67
2023/10/31 05:02:40;;;;;;;0.70;0.70;;;15.40;86.70;;;;;;5075344;28;20471;-67
2023/10/31 05:05:07;;;;;;;2.20;0.80;;;15.40;86.90;;;;;;5040719;28;20459;-66
2023/10/31 05:07:34;;;;;;;1.40;0.70;;;15.40;86.60;;;;;;5055112;28;20606;-68
2023/10/31 05:10:01;;;;;;;0.90;0.70;;;15.40;86.60;;;;;;5055005;28;20479;-67
2023/10/31 05:12:28;;;;;;;1.60;0.93;;;15.30;86.70;;;;;;5054686;28;20487;-67
2023/10/31 05:14:56;;;;;;;1.60;0.60;;;15.30;86.60;;;;;;5055965;28;20480;-67
2023/10/31 05:17:23;;;;;;;0.60;0.60;;;15.30;86.70;;;;;;5055059;28;20479;-68
2023/10/31 05:19:51;;;;;;;0.80;0.80;;;15.30;86.60;;;;;;5054907;28;20446;-67
2023/10/31 05:22:18;;;;;;;1.30;0.77;;;15.30;86.00;;;;;;5069202;28;20955;-67
2023/10/31 05:24:45;;;;;;;1.63;1.00;;;15.10;86.50;;;;;;5074450;28;20542;-68
2023/10/31 05:27:12;;;;;;;2.40;1.07;;;14.90;88.10;;;;;;5054714;28;20530;-68
2023/10/31 05:29:39;;;;;;;1.80;0.70;;;14.90;88.90;;;;;;5054949;28;20447;-67
2023/10/31 05:32:08;;;;;;;1.00;0.90;;;14.80;89.20;;;;;;5054695;28;20562;-67
2023/10/31 05:34:35;;;;;;;1.87;0.80;;;14.90;89.20;;;;;;5066674;28;20475;-67
2023/10/31 05:37:02;;;;;;;0.87;0.70;;;14.80;88.90;;;;;;5038861;28;20558;-68
2023/10/31 05:39:29;;;;;;;1.80;1.03;;;14.80;89.30;;;;;;5074454;28;20808;-67
2023/10/31 05:41:56;;;;;;;1.17;0.73;;;14.80;89.20;;;;;;5065059;28;20462;-66
2023/10/31 05:44:22;;;;;;;1.03;0.90;;;14.70;89.20;;;;;;5054677;28;20494;-67
2023/10/31 05:46:49;;;;;;;0.93;0.77;;;14.70;89.10;;;;;;5071232;28;20447;-66
2023/10/31 05:49:19;;;;;;;0.70;0.70;;;14.70;89.30;;;;;;5074140;28;20471;-68
2023/10/31 05:51:47;;;;;;;1.10;0.77;;;14.70;89.40;;;;;;5074522;28;20447;-68
2023/10/31 05:54:14;;;;;;;1.83;1.10;;;14.70;89.30;;;;;;5073907;28;20489;-67
2023/10/31 05:56:42;;;;;;;1.57;0.80;;;14.60;89.50;;;;;;5058229;28;20579;-67
2023/10/31 05:59:09;;;;;;;2.87;0.87;;;14.60;90.10;;;;;;5054225;28;20556;-66
2023/10/31 06:01:36;;;;;;;1.30;1.20;;;14.60;89.40;;;;;;5054080;28;20996;-66
2023/10/31 06:04:03;;;;;;;0.57;0.57;;;14.50;90.20;;;;;;5061462;28;20529;-67
2023/10/31 06:06:34;;;;;;;2.93;0.93;;;14.50;89.90;;;;;;5073894;28;20451;-67
2023/10/31 06:09:01;;;;;;;0.90;0.83;;;14.60;89.70;;;;;;5071181;28;20526;-67
2023/10/31 06:11:27;;;;;;;1.43;0.93;;;14.50;89.60;;;;;;5018249;28;20468;-68
2023/10/31 06:13:54;;;;;;;1.17;0.70;;;14.60;89.50;;;;;;5054080;28;20563;-67
2023/10/31 06:16:21;;;;;;;1.03;0.70;;;14.60;89.60;;;;;;5054488;28;20456;-67
2023/10/31 06:18:49;;;;;;;1.00;0.90;;;14.50;89.20;;;;;;5054106;28;20578;-67
2023/10/31 06:21:16;;;;;;;1.83;0.93;;;14.50;90.10;;;;;;5059101;28;20800;-67
2023/10/31 06:23:46;;;;;;;2.57;0.87;;;14.50;89.40;;;;;;5073881;28;20453;-66
2023/10/31 06:26:13;;;;;;;2.47;1.00;;;14.50;89.70;;;;;;5072671;28;20479;-67
2023/10/31 06:28:40;;;;;;;1.70;0.97;;;14.60;89.50;;;;;;5074730;28;20456;-68
2023/10/31 06:31:06;;;;;;;1.27;0.73;;;14.60;89.50;;;;;;5088110;28;20463;-67
2023/10/31 06:33:33;;;;;;;2.00;1.63;;;14.60;89.90;;;;;;5088204;28;20452;-67
2023/10/31 06:36:00;;;;;;;1.37;0.90;;;14.70;90.00;;;;;;5074113;28;20504;-68
2023/10/31 06:38:27;;;;;;;2.20;0.83;;;14.60;90.10;;;;;;5060223;28;20482;-68
2023/10/31 06:40:58;;;;;;;1.57;1.00;;;14.60;90.30;;;;;;5059451;28;20451;-68
2023/10/31 06:43:24;;;;;;;2.13;1.00;;;14.60;90.30;;;;;;5056728;28;20978;-67
2023/10/31 06:45:51;;;;;;;1.50;0.80;;;14.70;90.50;;;;;;5067094;28;20456;-66
2023/10/31 06:48:18;;;;;;;2.37;1.10;;;14.70;90.50;;;;;;5053520;28;20566;-68
2023/10/31 06:50:45;;;;;;;3.27;1.40;;;14.70;90.50;;;;;;5053214;28;20452;-67
2023/10/31 06:53:12;;;;;;;4.43;1.40;;;14.70;90.50;;;;;;5053514;28;20463;-67
2023/10/31 06:55:39;;;;;;;1.00;0.90;;;14.60;90.60;;;;;;5053539;28;20463;-68
2023/10/31 06:58:07;;;;;;;1.87;0.90;;;14.60;90.80;;;;;;5053102;28;20476;-66
2023/10/31 07:00:34;;;;;;;2.93;1.30;;;14.60;90.90;;;;;;5052947;28;20829;-67
2023/10/31 07:03:06;;;;;;;1.00;0.83;;;14.50;91.00;;;;;;5068278;28;20479;-67
2023/10/31 07:05:33;;;;;;;3.73;1.13;;;14.50;91.10;;;;;;5071710;28;20467;-67
2023/10/31 07:08:01;;;;;;;1.23;1.10;;;14.70;91.10;;;;;;5068467;28;20453;-67
2023/10/31 07:10:28;;;;;;;1.10;1.00;;;14.80;90.90;;;;;;5088243;28;20439;-67
2023/10/31 07:12:55;;;;;;;0.80;0.80;;;14.80;90.80;;;;;;5082177;28;20529;-66
2023/10/31 07:15:23;;;;;;;0.73;0.57;;;14.90;90.70;;;;;;5087162;28;20811;-67
2023/10/31 07:17:50;;;;;;;2.00;1.20;;;15.00;90.60;;;;;;5054064;28;20515;-67
2023/10/31 07:20:17;;;;;;;1.57;1.00;;;15.10;90.50;;;;;;5052889;28;20455;-66
2023/10/31 07:22:44;;;;;;;2.80;1.03;;;15.10;90.30;;;;;;5070888;28;20503;-68
2023/10/31 07:25:10;;;;;;;1.43;1.00;;;15.00;90.40;;;;;;5072935;28;20447;-66
2023/10/31 07:27:37;;;;;;;1.93;1.00;;;15.10;90.50;;;;;;5071351;28;20500;-66
2023/10/31 07:30:06;;;;;;;2.13;1.03;;;15.10;90.30;;;;;;5070911;28;20451;-67
2023/10/31 07:32:34;;;;;;;1.63;1.10;;;15.10;90.20;;;;;;5072228;28;20503;-67
2023/10/31 07:35:01;;;;;;;2.73;1.17;;;15.10;90.10;;;;;;5072620;28;20444;-67
2023/10/31 07:37:27;;;;;;;1.37;1.13;;;15.10;90.10;;;;;;5072775;28;20450;-67
2023/10/31 07:39:55;;;;;;;6.30;2.07;;;15.20;90.00;;;;;;5072703;28;20479;-66
2023/10/31 07:42:22;;;;;;;2.50;1.30;;;15.00;90.10;;;;;;5039476;28;20526;-66
2023/10/31 07:44:50;;;;;;;3.00;1.10;;;15.10;90.10;;;;;;5074698;28;20514;-66
2023/10/31 07:47:17;;;;;;;3.43;1.30;;;15.10;90.20;;;;;;5071638;28;20478;-66
2023/10/31 07:49:45;;;;;;;1.70;1.27;;;15.20;90.10;;;;;;5072181;28;20478;-66
2023/10/31 07:52:12;;;;;;;1.90;1.20;;;15.20;89.90;;;;;;5054080;28;20842;-66
2023/10/31 07:54:43;;;;;;;1.63;1.30;;;15.20;89.90;;;;;;5053070;28;20432;-66
2023/10/31 07:57:10;;;;;;;5.57;1.30;;;15.30;89.90;;;;;;5072486;28;20554;-66
2023/10/31 07:59:37;;;;;;;2.90;1.30;;;15.30;89.40;;;;;;5072086;28;20478;-65
2023/10/31 08:02:04;;;;;;;3.57;1.37;;;15.40;89.70;;;;;;5071838;28;20446;-66
2023/10/31 08:04:32;;;;;;;2.43;1.33;;;15.40;89.30;;;;;;5071557;28;20936;-67
2023/10/31 08:07:00;;;;;;;2.83;1.43;;;15.40;89.10;;;;;;5072109;28;20479;-67
2023/10/31 08:09:27;;;;;;;2.27;1.40;;;15.50;88.90;;;;;;5071672;28;20510;-67
2023/10/31 08:11:54;;;;;;;3.03;1.20;;;15.50;89.20;;;;;;5072018;28;20478;-69
2023/10/31 08:14:22;;;;;;;1.70;1.20;;;15.60;88.50;;;;;;5072749;28;20479;-67
2023/10/31 08:16:48;;;;;;;1.47;1.10;;;15.70;88.60;;;;;;5058212;28;21038;-67
2023/10/31 08:19:15;;;;;;;2.07;1.03;;;15.80;87.70;;;;;;5051760;28;20567;-67
2023/10/31 08:21:42;;;;;;;1.90;1.10;;;15.90;87.80;;;;;;5060897;28;20553;-66
2023/10/31 08:24:13;;;;;;;4.60;1.17;;;16.00;87.50;;;;;;5072007;28;20857;-66
2023/10/31 08:26:41;;;;;;;2.67;1.30;;;16.10;87.30;;;;;;5072620;28;20564;-66
2023/10/31 08:29:08;;;;;;;1.23;1.10;;;16.20;86.60;;;;;;5071938;28;20482;-66
2023/10/31 08:31:35;;;;;;;2.07;1.23;;;16.20;86.30;;;;;;5072254;28;20471;-67
2023/10/31 08:34:02;;;;;;;2.57;1.13;;;16.30;86.60;;;;;;5071689;28;20471;-66
2023/10/31 08:36:31;;;;;;;2.87;1.10;;;16.40;86.20;;;;;;5071491;28;20526;-66
2023/10/31 08:38:58;;;;;;;3.10;1.40;;;16.50;86.00;;;;;;5054066;28;20479;-66
2023/10/31 08:41:26;;;;;;;2.67;1.40;;;16.50;85.40;;;;;;5071881;28;20504;-67
2023/10/31 08:43:58;;;;;;;2.87;1.20;;;16.50;85.20;;;;;;5071533;28;20466;-66
2023/10/31 08:46:25;;;;;;;2.87;1.40;;;16.40;85.40;;;;;;5070626;28;20460;-66
2023/10/31 08:48:54;;;;;;;2.83;1.07;;;16.40;85.30;;;;;;5071164;28;20442;-65
2023/10/31 08:51:23;;;;;;;3.57;1.30;;;16.50;85.40;;;;;;5071767;28;20963;-66
2023/10/31 08:53:50;;;;;;;2.47;1.37;;;16.70;84.80;;;;;;5072217;28;20451;-66
2023/10/31 08:56:21;;;;;;;1.63;1.20;;;16.70;84.40;;;;;;5071568;28;20550;-66
2023/10/31 08:58:49;;;;;;;2.50;1.50;;;16.70;84.10;;;;;;5071292;28;20544;-66
2023/10/31 09:01:16;;;;;;;3.77;1.30;;;16.70;84.50;;;;;;5071039;28;20538;-66
2023/10/31 09:03:44;;;;;;;2.77;1.20;;;16.70;84.50;;;;;;5071460;28;20514;-67
2023/10/31 09:06:13;;;;;;;3.33;1.20;;;16.90;84.40;;;;;;5071611;28;20446;-67
2023/10/31 09:08:39;;;;;;;2.00;1.37;;;17.10;83.90;;;;;;5071410;28;20738;-66
2023/10/31 09:11:09;;;;;;;3.37;1.10;;;17.10;83.60;;;;;;5071415;28;20479;-66
2023/10/31 09:13:36;;;;;;;2.57;1.10;;;17.10;83.10;;;;;;5053589;28;20530;-66
2023/10/31 09:16:05;;;;;;;2.93;1.30;;;17.00;82.00;;;;;;5050932;28;20966;-66
2023/10/31 09:18:32;;;;;;;2.67;1.33;;;17.10;83.20;;;;;;5051297;28;20494;-66
2023/10/31 09:20:59;;;;;;;3.60;1.50;;;17.10;83.20;;;;;;5054648;28;20492;-67
2023/10/31 09:23:26;;;;;;;1.53;1.17;;;17.30;83.10;;;;;;5071032;28;20240;-67
2023/10/31 09:25:54;;;;;;;3.50;1.37;;;17.40;81.70;;;;;;5071288;28;20545;-67
2023/10/31 09:28:21;;;;;;;3.67;1.23;;;17.40;82.30;;;;;;5053726;28;20470;-67
2023/10/31 09:30:50;;;;;;;5.60;1.63;;;17.40;82.40;;;;;;5070786;28;20467;-67
2023/10/31 09:33:21;;;;;;;2.50;1.47;;;17.60;82.10;;;;;;5071198;28;20479;-66
2023/10/31 09:35:48;;;;;;;3.63;1.50;;;17.70;80.70;;;;;;5070700;28;20248;-66
2023/10/31 09:38:15;;;;;;;3.33;1.47;;;17.80;80.00;;;;;;5074202;28;20507;-66
2023/10/31 09:40:42;;;;;;;3.57;1.37;;;17.70;80.00;;;;;;5079291;28;20454;-66
2023/10/31 09:43:09;;;;;;;2.33;1.20;;;17.60;80.50;;;;;;5074106;28;20582;-65
2023/10/31 09:45:36;;;;;;;3.10;1.50;;;17.70;81.10;;;;;;5065062;28;20213;-66
2023/10/31 09:48:03;;;;;;;2.73;1.20;;;17.80;80.80;;;;;;5054621;28;20855;-66
2023/10/31 09:50:32;;;;;;;3.83;1.33;;;18.00;81.40;;;;;;5054755;28;20535;-66
2023/10/31 09:53:00;;;;;;;6.63;1.70;;;18.10;81.70;;;;;;5054572;28;20212;-66
2023/10/31 09:55:28;;;;;;;3.40;1.47;;;18.10;80.60;;;;;;5054336;28;20244;-66
2023/10/31 09:57:55;;;;;;;4.30;1.70;;;18.10;79.90;;;;;;5054374;28;20495;-67
2023/10/31 10:00:22;;;;;;;4.57;1.37;;;18.10;79.80;;;;;;5054377;28;20266;-67
2023/10/31 10:02:50;;;;;;;4.97;1.57;;;18.10;79.70;;;;;;5055222;28;20436;-66
2023/10/31 10:05:19;;;;;;;4.03;2.10;;;18.20;79.80;;;;;;5054302;28;20210;-65
2023/10/31 10:07:47;;;;;;;2.27;1.30;;;18.30;79.40;;;;;;5035946;28;20206;-66
2023/10/31 10:10:14;;;;;;;2.97;1.50;;;18.20;79.10;;;;;;5057563;28;20202;-68
2023/10/31 10:12:43;;;;;;;4.17;1.40;;;18.20;78.00;;;;;;5063572;28;20228;-66
2023/10/31 10:15:11;;;;;;;4.40;1.17;;;18.10;78.80;;;;;;5073793;28;20208;-67
2023/10/31 10:17:39;;;;;;;4.57;1.50;;;18.00;79.00;;;;;;5073933;28;20205;-66
2023/10/31 10:20:07;;;;;;;3.23;1.60;;;18.10;79.30;;;;;;5074756;28;20533;-66
2023/10/31 10:22:38;;;;;;;4.23;1.47;;;18.00;79.40;;;;;;5074449;28;20220;-65
2023/10/31 10:25:08;;;;;;;3.20;1.90;;;18.10;79.80;;;;;;5074712;28;20542;-65
2023/10/31 10:27:37;;;;;;;4.00;1.70;;;18.10;79.90;;;;;;5074025;28;20823;-67
2023/10/31 10:30:09;;;;;;;4.80;1.40;;;18.00;79.20;;;;;;5073747;28;20232;-66
2023/10/31 10:32:36;;;;;;;3.57;1.57;;;17.90;79.80;;;;;;5073878;28;20481;-67
2023/10/31 10:35:03;;;;;;;4.20;1.60;;;17.80;79.90;;;;;;5073819;28;20439;-67
2023/10/31 10:37:31;;;;;;;3.33;1.50;;;17.60;79.80;;;;;;5073424;28;20475;-66
2023/10/31 10:39:59;;;;;;;4.23;1.50;;;17.40;80.40;;;;;;5056301;28;20552;-66
2023/10/31 10:42:34;;;;;;;3.23;1.77;;;17.30;81.20;;;;;;5066417;28;20881;-65
2023/10/31 10:45:04;;;;;;;2.97;1.50;;;17.30;80.70;;;;;;5002707;28;20209;-67
2023/10/31 10:47:33;;;;;;;2.37;1.37;;;17.20;81.40;;;;;;5035707;28;20479;-66
2023/10/31 10:50:02;;;;;;;2.50;1.50;;;17.30;81.60;;;;;;5053301;28;20561;-66
2023/10/31 10:52:36;;;;;;;5.50;1.73;;;17.40;81.30;;;;;;5053868;28;20554;-67
2023/10/31 10:55:07;;;;;;;1.93;1.10;;;17.40;80.90;;;;;;5053822;28;20445;-67
2023/10/31 10:57:44;;;;;;;4.03;1.30;;;17.40;81.30;;;;;;5052927;28;20441;-67
2023/10/31 11:00:15;;;;;;;3.10;1.27;;;17.40;81.40;;;;;;5053031;28;20578;-67
2023/10/31 11:02:43;;;;;;;2.50;1.27;;;17.30;81.30;;;;;;5053343;28;20440;-67
2023/10/31 11:05:10;;;;;;;4.03;1.40;;;17.20;81.80;;;;;;5053253;28;20464;-67
2023/10/31 11:07:39;;;;;;;3.80;1.50;;;17.10;82.40;;;;;;5052982;28;20944;-67
2023/10/31 11:10:06;;;;;;;2.60;1.50;;;17.10;82.60;;;;;;5053534;28;20458;-67
2023/10/31 11:12:34;;;;;;;2.63;1.87;;;17.10;82.90;;;;;;5062003;28;20489;-66
2023/10/31 11:15:04;;;;;;;3.33;1.53;;;17.10;83.20;;;;;;5073327;28;20479;-66
2023/10/31 11:17:34;;;;;;;4.57;1.80;;;17.10;83.40;;;;;;5073417;28;20510;-65
2023/10/31 11:20:02;;;;;;;3.27;1.30;;;17.00;83.80;;;;;;5073031;28;20483;-66
2023/10/31 11:22:38;;;;;;;2.30;1.37;;;17.10;84.00;;;;;;5073244;28;20467;-68
2023/10/31 11:25:08;;;;;;;6.87;1.90;;;17.30;83.50;;;;;;5073121;28;20458;-66
2023/10/31 11:27:35;;;;;;;3.40;1.30;;;17.30;82.90;;;;;;5072915;28;20527;-68
2023/10/31 11:30:06;;;;;;;1.33;1.20;;;17.20;83.40;;;;;;5072930;28;20545;-66
2023/10/31 11:32:34;;;;;;;3.63;1.47;;;17.20;83.60;;;;;;5073657;28;20543;-66
2023/10/31 11:35:01;;;;;;;5.33;1.87;;;17.20;83.70;;;;;;5072562;28;20467;-67
2023/10/31 11:37:34;;;;;;;2.80;1.53;;;17.30;83.50;;;;;;5073093;28;20546;-66
2023/10/31 11:40:21;;;;;;;3.07;1.60;;;17.30;83.60;;;;;;5071947;28;20495;-66
2023/10/31 11:42:50;;;;;;;2.77;1.77;;;17.40;83.50;;;;;;5062462;28;20531;-67
2023/10/31 11:45:34;;;;;;;4.63;1.80;;;17.40;84.10;;;;;;5053358;28;20878;-66
2023/10/31 11:48:01;;;;;;;5.87;1.90;;;17.60;81.90;;;;;;5050445;28;20668;-67
2023/10/31 11:50:28;;;;;;;2.60;2.27;;;17.60;82.40;;;;;;5053034;28;20980;-67
2023/10/31 11:53:06;;;;;;;2.67;2.20;;;17.90;82.20;;;;;;5062305;28;20198;-67
2023/10/31 11:55:37;;;;;;;5.77;2.40;;;18.30;81.10;;;;;;5073044;28;20263;-66
2023/10/31 11:58:18;;;;;;;3.60;2.30;;;18.50;80.50;;;;;;5075844;28;20252;-65
2023/10/31 12:00:48;;;;;;;3.63;2.97;;;18.90;80.00;;;;;;5078689;28;20260;-66
2023/10/31 12:03:17;;;;;;;3.00;2.30;;;19.10;78.70;;;;;;5073602;28;20255;-65
2023/10/31 12:05:53;;;;;;;4.23;2.37;;;19.40;76.70;;;;;;5072839;28;20212;-67
2023/10/31 12:08:27;;;;;;;2.80;2.17;;;19.60;76.30;;;;;;5072913;28;20292;-65
2023/10/31 12:10:54;;;;;;;3.70;1.90;;;19.50;75.80;;;;;;5072204;28;20225;-66
2023/10/31 12:13:21;;;;;;;3.97;1.87;;;19.60;77.10;;;;;;5072912;28;20305;-66
2023/10/31 12:15:56;;;;;;;3.13;2.20;;;19.70;76.00;;;;;;5054494;28;20312;-66
2023/10/31 12:18:23;;;;;;;4.43;2.23;;;19.40;76.00;;;;;;5074367;28;20211;-67
2023/10/31 12:20:51;;;;;;;2.90;1.80;;;19.10;77.10;;;;;;5075327;28;20292;-65
2023/10/31 12:23:19;;;;;;;3.50;2.10;;;19.00;77.90;;;;;;5078789;28;20209;-65
2023/10/31 12:25:53;;;;;;;4.30;2.10;;;18.90;78.20;;;;;;5078888;28;20703;-67
2023/10/31 12:28:21;;;;;;;2.67;2.07;;;18.80;78.60;;;;;;5071899;28;20656;-66
2023/10/31 12:30:50;;;;;;;5.07;2.20;;;18.70;78.90;;;;;;5071956;28;20301;-65
2023/10/31 12:33:19;;;;;;;2.33;1.90;;;18.50;80.10;;;;;;5072041;28;20324;-66
2023/10/31 12:35:52;;;;;;;5.10;2.00;;;18.50;79.50;;;;;;5071662;28;20245;-66
2023/10/31 12:38:21;;;;;;;2.43;1.47;;;18.40;79.80;;;;;;5071552;28;20209;-67
2023/10/31 12:40:49;;;;;;;2.57;1.63;;;18.40;80.20;;;;;;5071044;28;20570;-66
2023/10/31 12:43:17;;;;;;;2.20;1.50;;;18.40;80.50;;;;;;5069708;28;20262;-67
2023/10/31 12:45:44;;;;;;;2.80;1.40;;;18.50;80.70;;;;;;5071592;28;20537;-66
2023/10/31 12:48:11;;;;;;;2.40;1.50;;;18.60;80.40;;;;;;5071446;28;20258;-66
2023/10/31 12:50:42;;;;;;;3.87;1.73;;;18.40;80.70;;;;;;5071251;28;20819;-65